sensor_id;sensor_type;location;lat;lon;timestamp;P1;durP1;ratioP1;P2;durP2;ratioP2
45650;SDS011;31365;48.858;8.530;2023-05-07T00:00:16;6.90;;;2.10;;
45650;SDS011;31365;48.858;8.530;2023-05-07T00:02:45;4.47;;;1.77;;
45650;SDS011;31365;48.858;8.530;2023-05-07T00:05:16;3.03;;;1.60;;
45650;SDS011;31365;48.858;8.530;2023-05-07T00:07:45;3.23;;;1.90;;
45650;SDS011;31365;48.858;8.530;2023-05-07T00:10:13;1.90;;;1.43;;
45650;SDS011;31365;48.858;8.530;2023-05-07T00:12:41;2.53;;;1.83;;
45650;SDS011;31365;48.858;8.530;2023-05-07T00:15:10;2.37;;;1.53;;
45650;SDS011;31365;48.858;8.530;2023-05-07T00:17:39;2.80;;;1.57;;
45650;SDS011;31365;48.858;8.530;2023-05-07T00:20:07;3.00;;;1.87;;
45650;SDS011;31365;48.858;8.530;2023-05-07T00:22:38;4.90;;;2.20;;
45650;SDS011;31365;48.858;8.530;2023-05-07T00:25:07;2.70;;;1.73;;
45650;SDS011;31365;48.858;8.530;2023-05-07T00:27:36;1.97;;;1.77;;
45650;SDS011;31365;48.858;8.530;2023-05-07T00:30:05;2.03;;;1.60;;
45650;SDS011;31365;48.858;8.530;2023-05-07T00:32:35;2.23;;;1.80;;
45650;SDS011;31365;48.858;8.530;2023-05-07T00:35:03;3.23;;;1.73;;
45650;SDS011;31365;48.858;8.530;2023-05-07T00:37:34;4.47;;;2.00;;
45650;SDS011;31365;48.858;8.530;2023-05-07T00:40:04;2.27;;;1.80;;
45650;SDS011;31365;48.858;8.530;2023-05-07T00:42:35;2.83;;;1.63;;
45650;SDS011;31365;48.858;8.530;2023-05-07T00:45:04;2.43;;;1.93;;
45650;SDS011;31365;48.858;8.530;2023-05-07T00:47:34;2.10;;;1.90;;
45650;SDS011;31365;48.858;8.530;2023-05-07T00:50:02;3.67;;;1.97;;
45650;SDS011;31365;48.858;8.530;2023-05-07T00:52:32;3.73;;;1.60;;
45650;SDS011;31365;48.858;8.530;2023-05-07T00:55:01;4.50;;;1.60;;
45650;SDS011;31365;48.858;8.530;2023-05-07T00:57:35;2.77;;;1.90;;
45650;SDS011;31365;48.858;8.530;2023-05-07T01:00:08;3.33;;;1.40;;
45650;SDS011;31365;48.858;8.530;2023-05-07T01:02:39;1.92;;;1.73;;
45650;SDS011;31365;48.858;8.530;2023-05-07T01:05:09;3.80;;;1.63;;
45650;SDS011;31365;48.858;8.530;2023-05-07T01:07:41;4.70;;;1.80;;
45650;SDS011;31365;48.858;8.530;2023-05-07T01:10:12;5.63;;;1.87;;
45650;SDS011;31365;48.858;8.530;2023-05-07T01:12:41;4.97;;;1.80;;
45650;SDS011;31365;48.858;8.530;2023-05-07T01:15:12;2.47;;;1.43;;
45650;SDS011;31365;48.858;8.530;2023-05-07T01:17:41;3.47;;;1.50;;
45650;SDS011;31365;48.858;8.530;2023-05-07T01:20:17;2.73;;;1.80;;
45650;SDS011;31365;48.858;8.530;2023-05-07T01:22:50;3.20;;;1.30;;
45650;SDS011;31365;48.858;8.530;2023-05-07T01:25:18;2.47;;;1.30;;
45650;SDS011;31365;48.858;8.530;2023-05-07T01:27:51;1.50;;;1.40;;
45650;SDS011;31365;48.858;8.530;2023-05-07T01:30:22;1.87;;;1.60;;
45650;SDS011;31365;48.858;8.530;2023-05-07T01:32:53;3.13;;;1.53;;
45650;SDS011;31365;48.858;8.530;2023-05-07T01:35:32;3.00;;;1.93;;
45650;SDS011;31365;48.858;8.530;2023-05-07T01:38:09;1.80;;;1.70;;
45650;SDS011;31365;48.858;8.530;2023-05-07T01:40:37;2.60;;;1.80;;
45650;SDS011;31365;48.858;8.530;2023-05-07T01:43:06;2.30;;;1.60;;
45650;SDS011;31365;48.858;8.530;2023-05-07T01:45:36;2.10;;;1.77;;
45650;SDS011;31365;48.858;8.530;2023-05-07T01:48:06;2.00;;;1.77;;
45650;SDS011;31365;48.858;8.530;2023-05-07T01:50:37;3.63;;;1.63;;
45650;SDS011;31365;48.858;8.530;2023-05-07T01:53:06;3.07;;;1.50;;
45650;SDS011;31365;48.858;8.530;2023-05-07T01:55:36;2.73;;;1.70;;
45650;SDS011;31365;48.858;8.530;2023-05-07T01:58:04;4.40;;;1.73;;
45650;SDS011;31365;48.858;8.530;2023-05-07T02:00:33;3.87;;;1.53;;
45650;SDS011;31365;48.858;8.530;2023-05-07T02:03:01;4.20;;;1.90;;
45650;SDS011;31365;48.858;8.530;2023-05-07T02:05:40;1.60;;;1.50;;
45650;SDS011;31365;48.858;8.530;2023-05-07T02:08:19;5.77;;;1.60;;
45650;SDS011;31365;48.858;8.530;2023-05-07T02:10:49;2.43;;;1.50;;
45650;SDS011;31365;48.858;8.530;2023-05-07T02:13:17;2.20;;;1.93;;
45650;SDS011;31365;48.858;8.530;2023-05-07T02:15:46;1.70;;;1.60;;
45650;SDS011;31365;48.858;8.530;2023-05-07T02:18:18;1.50;;;1.40;;
45650;SDS011;31365;48.858;8.530;2023-05-07T02:20:47;2.00;;;1.30;;
45650;SDS011;31365;48.858;8.530;2023-05-07T02:23:15;2.20;;;1.63;;
45650;SDS011;31365;48.858;8.530;2023-05-07T02:25:43;2.77;;;1.47;;
45650;SDS011;31365;48.858;8.530;2023-05-07T02:28:13;2.67;;;1.60;;
45650;SDS011;31365;48.858;8.530;2023-05-07T02:30:52;1.80;;;1.63;;
45650;SDS011;31365;48.858;8.530;2023-05-07T02:33:21;2.20;;;1.43;;
45650;SDS011;31365;48.858;8.530;2023-05-07T02:35:49;1.43;;;1.33;;
45650;SDS011;31365;48.858;8.530;2023-05-07T02:38:18;5.13;;;1.60;;
45650;SDS011;31365;48.858;8.530;2023-05-07T02:40:47;2.37;;;1.30;;
45650;SDS011;31365;48.858;8.530;2023-05-07T02:43:17;4.00;;;1.70;;
45650;SDS011;31365;48.858;8.530;2023-05-07T02:45:47;2.27;;;1.43;;
45650;SDS011;31365;48.858;8.530;2023-05-07T02:48:16;5.57;;;1.63;;
45650;SDS011;31365;48.858;8.530;2023-05-07T02:50:44;1.40;;;1.30;;
45650;SDS011;31365;48.858;8.530;2023-05-07T02:53:13;3.77;;;1.40;;
45650;SDS011;31365;48.858;8.530;2023-05-07T02:55:41;2.43;;;1.80;;
45650;SDS011;31365;48.858;8.530;2023-05-07T02:58:10;3.50;;;1.57;;
45650;SDS011;31365;48.858;8.530;2023-05-07T03:00:41;1.87;;;1.40;;
45650;SDS011;31365;48.858;8.530;2023-05-07T03:03:19;3.20;;;1.60;;
45650;SDS011;31365;48.858;8.530;2023-05-07T03:05:48;2.83;;;1.30;;
45650;SDS011;31365;48.858;8.530;2023-05-07T03:08:16;3.20;;;1.60;;
45650;SDS011;31365;48.858;8.530;2023-05-07T03:10:44;2.27;;;1.40;;
45650;SDS011;31365;48.858;8.530;2023-05-07T03:13:15;2.20;;;1.67;;
45650;SDS011;31365;48.858;8.530;2023-05-07T03:15:46;4.63;;;1.60;;
45650;SDS011;31365;48.858;8.530;2023-05-07T03:18:14;3.03;;;1.90;;
45650;SDS011;31365;48.858;8.530;2023-05-07T03:20:43;1.77;;;1.67;;
45650;SDS011;31365;48.858;8.530;2023-05-07T03:23:11;2.42;;;1.90;;
45650;SDS011;31365;48.858;8.530;2023-05-07T03:29:28;1.53;;;1.43;;
45650;SDS011;31365;48.858;8.530;2023-05-07T03:31:58;1.63;;;1.53;;
45650;SDS011;31365;48.858;8.530;2023-05-07T03:34:26;2.87;;;1.40;;
45650;SDS011;31365;48.858;8.530;2023-05-07T03:36:55;2.60;;;1.50;;
45650;SDS011;31365;48.858;8.530;2023-05-07T03:39:23;2.07;;;1.60;;
45650;SDS011;31365;48.858;8.530;2023-05-07T03:41:51;1.77;;;1.47;;
45650;SDS011;31365;48.858;8.530;2023-05-07T03:44:20;2.30;;;1.67;;
45650;SDS011;31365;48.858;8.530;2023-05-07T03:46:50;4.47;;;1.90;;
45650;SDS011;31365;48.858;8.530;2023-05-07T03:49:19;3.27;;;1.87;;
45650;SDS011;31365;48.858;8.530;2023-05-07T03:51:48;5.30;;;1.73;;
45650;SDS011;31365;48.858;8.530;2023-05-07T03:54:17;3.07;;;2.03;;
45650;SDS011;31365;48.858;8.530;2023-05-07T03:56:46;2.30;;;1.70;;
45650;SDS011;31365;48.858;8.530;2023-05-07T03:59:14;5.83;;;1.60;;
45650;SDS011;31365;48.858;8.530;2023-05-07T04:01:44;2.57;;;1.90;;
45650;SDS011;31365;48.858;8.530;2023-05-07T04:04:16;1.60;;;1.50;;
45650;SDS011;31365;48.858;8.530;2023-05-07T04:06:46;1.73;;;1.63;;
45650;SDS011;31365;48.858;8.530;2023-05-07T04:09:14;3.40;;;1.60;;
45650;SDS011;31365;48.858;8.530;2023-05-07T04:11:44;1.83;;;1.70;;
45650;SDS011;31365;48.858;8.530;2023-05-07T04:14:13;2.63;;;1.70;;
45650;SDS011;31365;48.858;8.530;2023-05-07T04:16:41;2.77;;;1.90;;
45650;SDS011;31365;48.858;8.530;2023-05-07T04:19:10;5.60;;;1.53;;
45650;SDS011;31365;48.858;8.530;2023-05-07T04:21:38;3.33;;;2.07;;
45650;SDS011;31365;48.858;8.530;2023-05-07T04:24:08;1.83;;;1.73;;
45650;SDS011;31365;48.858;8.530;2023-05-07T04:26:36;1.40;;;1.30;;
45650;SDS011;31365;48.858;8.530;2023-05-07T04:29:04;2.50;;;1.63;;
45650;SDS011;31365;48.858;8.530;2023-05-07T04:31:33;1.93;;;1.67;;
45650;SDS011;31365;48.858;8.530;2023-05-07T04:34:01;4.37;;;2.00;;
45650;SDS011;31365;48.858;8.530;2023-05-07T04:36:30;1.50;;;1.40;;
45650;SDS011;31365;48.858;8.530;2023-05-07T04:39:09;3.37;;;1.97;;
45650;SDS011;31365;48.858;8.530;2023-05-07T04:41:40;1.60;;;1.50;;
45650;SDS011;31365;48.858;8.530;2023-05-07T04:44:09;1.97;;;1.50;;
45650;SDS011;31365;48.858;8.530;2023-05-07T04:46:37;1.63;;;1.43;;
45650;SDS011;31365;48.858;8.530;2023-05-07T04:49:05;2.03;;;1.60;;
45650;SDS011;31365;48.858;8.530;2023-05-07T04:51:33;2.73;;;1.90;;
45650;SDS011;31365;48.858;8.530;2023-05-07T04:54:02;4.10;;;1.70;;
45650;SDS011;31365;48.858;8.530;2023-05-07T04:56:32;2.20;;;1.60;;
45650;SDS011;31365;48.858;8.530;2023-05-07T04:59:00;1.57;;;1.47;;
45650;SDS011;31365;48.858;8.530;2023-05-07T05:01:29;2.60;;;1.60;;
45650;SDS011;31365;48.858;8.530;2023-05-07T05:03:58;1.90;;;1.50;;
45650;SDS011;31365;48.858;8.530;2023-05-07T05:06:27;1.97;;;1.67;;
45650;SDS011;31365;48.858;8.530;2023-05-07T05:08:57;1.87;;;1.67;;
45650;SDS011;31365;48.858;8.530;2023-05-07T05:11:28;2.67;;;1.67;;
45650;SDS011;31365;48.858;8.530;2023-05-07T05:13:58;1.80;;;1.70;;
45650;SDS011;31365;48.858;8.530;2023-05-07T05:16:28;2.03;;;1.60;;
45650;SDS011;31365;48.858;8.530;2023-05-07T05:18:57;4.13;;;1.67;;
45650;SDS011;31365;48.858;8.530;2023-05-07T05:21:26;1.90;;;1.57;;
45650;SDS011;31365;48.858;8.530;2023-05-07T05:23:59;1.73;;;1.63;;
45650;SDS011;31365;48.858;8.530;2023-05-07T05:26:27;2.00;;;1.90;;
45650;SDS011;31365;48.858;8.530;2023-05-07T05:28:58;1.87;;;1.77;;
45650;SDS011;31365;48.858;8.530;2023-05-07T05:31:29;2.00;;;1.63;;
45650;SDS011;31365;48.858;8.530;2023-05-07T05:33:57;3.50;;;2.00;;
45650;SDS011;31365;48.858;8.530;2023-05-07T05:36:25;1.70;;;1.60;;
45650;SDS011;31365;48.858;8.530;2023-05-07T05:38:56;1.73;;;1.50;;
45650;SDS011;31365;48.858;8.530;2023-05-07T05:41:24;6.50;;;2.17;;
45650;SDS011;31365;48.858;8.530;2023-05-07T05:43:52;1.67;;;1.53;;
45650;SDS011;31365;48.858;8.530;2023-05-07T05:46:31;1.77;;;1.67;;
45650;SDS011;31365;48.858;8.530;2023-05-07T05:49:23;1.50;;;1.40;;
45650;SDS011;31365;48.858;8.530;2023-05-07T05:51:52;3.07;;;1.47;;
45650;SDS011;31365;48.858;8.530;2023-05-07T05:54:24;1.70;;;1.47;;
45650;SDS011;31365;48.858;8.530;2023-05-07T05:56:52;2.27;;;1.90;;
45650;SDS011;31365;48.858;8.530;2023-05-07T05:59:22;3.43;;;1.70;;
45650;SDS011;31365;48.858;8.530;2023-05-07T06:01:53;3.33;;;1.47;;
45650;SDS011;31365;48.858;8.530;2023-05-07T06:04:23;2.73;;;1.97;;
45650;SDS011;31365;48.858;8.530;2023-05-07T06:07:15;1.63;;;1.53;;
45650;SDS011;31365;48.858;8.530;2023-05-07T06:09:43;2.17;;;1.97;;
45650;SDS011;31365;48.858;8.530;2023-05-07T06:12:12;3.63;;;1.70;;
45650;SDS011;31365;48.858;8.530;2023-05-07T06:14:42;4.20;;;1.63;;
45650;SDS011;31365;48.858;8.530;2023-05-07T06:17:12;1.83;;;1.73;;
45650;SDS011;31365;48.858;8.530;2023-05-07T06:19:41;2.60;;;1.40;;
45650;SDS011;31365;48.858;8.530;2023-05-07T06:22:10;1.50;;;1.23;;
45650;SDS011;31365;48.858;8.530;2023-05-07T06:24:39;3.23;;;1.47;;
45650;SDS011;31365;48.858;8.530;2023-05-07T06:27:08;1.95;;;1.67;;
45650;SDS011;31365;48.858;8.530;2023-05-07T06:29:37;2.95;;;1.30;;
45650;SDS011;31365;48.858;8.530;2023-05-07T06:32:13;1.50;;;1.40;;
45650;SDS011;31365;48.858;8.530;2023-05-07T06:34:44;1.42;;;1.30;;
45650;SDS011;31365;48.858;8.530;2023-05-07T06:37:14;3.63;;;1.35;;
45650;SDS011;31365;48.858;8.530;2023-05-07T06:39:51;1.50;;;1.25;;
45650;SDS011;31365;48.858;8.530;2023-05-07T06:42:19;2.88;;;1.38;;
45650;SDS011;31365;48.858;8.530;2023-05-07T06:44:49;1.58;;;1.30;;
45650;SDS011;31365;48.858;8.530;2023-05-07T06:47:20;2.45;;;1.30;;
45650;SDS011;31365;48.858;8.530;2023-05-07T06:49:51;3.45;;;1.55;;
45650;SDS011;31365;48.858;8.530;2023-05-07T06:52:24;1.52;;;1.30;;
45650;SDS011;31365;48.858;8.530;2023-05-07T06:54:53;1.77;;;1.23;;
45650;SDS011;31365;48.858;8.530;2023-05-07T06:57:23;1.30;;;1.20;;
45650;SDS011;31365;48.858;8.530;2023-05-07T06:59:52;2.22;;;1.95;;
45650;SDS011;31365;48.858;8.530;2023-05-07T07:02:22;2.78;;;1.20;;
45650;SDS011;31365;48.858;8.530;2023-05-07T07:04:50;1.83;;;1.35;;
45650;SDS011;31365;48.858;8.530;2023-05-07T07:07:19;3.80;;;1.30;;
45650;SDS011;31365;48.858;8.530;2023-05-07T07:09:49;2.10;;;1.73;;
45650;SDS011;31365;48.858;8.530;2023-05-07T07:12:19;2.35;;;1.33;;
45650;SDS011;31365;48.858;8.530;2023-05-07T07:14:47;1.65;;;1.27;;
45650;SDS011;31365;48.858;8.530;2023-05-07T07:17:15;2.88;;;1.52;;
45650;SDS011;31365;48.858;8.530;2023-05-07T07:19:45;2.60;;;1.25;;
45650;SDS011;31365;48.858;8.530;2023-05-07T07:22:13;3.22;;;1.55;;
45650;SDS011;31365;48.858;8.530;2023-05-07T07:24:42;1.75;;;1.42;;
45650;SDS011;31365;48.858;8.530;2023-05-07T07:27:12;2.45;;;1.30;;
45650;SDS011;31365;48.858;8.530;2023-05-07T07:29:41;2.25;;;1.50;;
45650;SDS011;31365;48.858;8.530;2023-05-07T07:32:10;4.72;;;1.73;;
45650;SDS011;31365;48.858;8.530;2023-05-07T07:34:38;2.35;;;1.40;;
45650;SDS011;31365;48.858;8.530;2023-05-07T07:37:09;3.00;;;1.83;;
45650;SDS011;31365;48.858;8.530;2023-05-07T07:39:38;1.40;;;1.30;;
45650;SDS011;31365;48.858;8.530;2023-05-07T07:42:07;1.48;;;1.33;;
45650;SDS011;31365;48.858;8.530;2023-05-07T07:44:35;2.88;;;1.52;;
45650;SDS011;31365;48.858;8.530;2023-05-07T07:47:08;3.15;;;1.60;;
45650;SDS011;31365;48.858;8.530;2023-05-07T07:49:36;1.67;;;1.52;;
45650;SDS011;31365;48.858;8.530;2023-05-07T07:52:07;1.70;;;1.60;;
45650;SDS011;31365;48.858;8.530;2023-05-07T07:54:37;1.42;;;1.33;;
45650;SDS011;31365;48.858;8.530;2023-05-07T07:57:06;2.00;;;1.42;;
45650;SDS011;31365;48.858;8.530;2023-05-07T07:59:35;3.60;;;1.77;;
45650;SDS011;31365;48.858;8.530;2023-05-07T08:02:04;1.95;;;1.65;;
45650;SDS011;31365;48.858;8.530;2023-05-07T08:04:34;2.60;;;1.35;;
45650;SDS011;31365;48.858;8.530;2023-05-07T08:07:05;2.38;;;1.20;;
45650;SDS011;31365;48.858;8.530;2023-05-07T08:09:38;1.42;;;1.33;;
45650;SDS011;31365;48.858;8.530;2023-05-07T08:12:08;3.67;;;1.63;;
45650;SDS011;31365;48.858;8.530;2023-05-07T08:14:38;2.15;;;1.48;;
45650;SDS011;31365;48.858;8.530;2023-05-07T08:17:07;2.72;;;1.48;;
45650;SDS011;31365;48.858;8.530;2023-05-07T08:19:37;2.47;;;1.33;;
45650;SDS011;31365;48.858;8.530;2023-05-07T08:22:09;3.55;;;1.45;;
45650;SDS011;31365;48.858;8.530;2023-05-07T08:24:39;1.60;;;1.50;;
45650;SDS011;31365;48.858;8.530;2023-05-07T08:27:08;2.25;;;1.30;;
45650;SDS011;31365;48.858;8.530;2023-05-07T08:29:39;3.17;;;1.77;;
45650;SDS011;31365;48.858;8.530;2023-05-07T08:32:08;2.53;;;1.60;;
45650;SDS011;31365;48.858;8.530;2023-05-07T08:34:36;2.42;;;1.45;;
45650;SDS011;31365;48.858;8.530;2023-05-07T08:37:06;2.25;;;1.58;;
45650;SDS011;31365;48.858;8.530;2023-05-07T08:39:35;2.00;;;1.55;;
45650;SDS011;31365;48.858;8.530;2023-05-07T08:42:09;5.18;;;1.60;;
45650;SDS011;31365;48.858;8.530;2023-05-07T08:44:45;4.28;;;1.60;;
45650;SDS011;31365;48.858;8.530;2023-05-07T08:47:16;2.55;;;1.23;;
45650;SDS011;31365;48.858;8.530;2023-05-07T08:49:48;1.52;;;1.42;;
45650;SDS011;31365;48.858;8.530;2023-05-07T08:52:17;3.72;;;2.00;;
45650;SDS011;31365;48.858;8.530;2023-05-07T08:54:46;3.15;;;1.42;;
45650;SDS011;31365;48.858;8.530;2023-05-07T08:57:16;2.00;;;1.45;;
45650;SDS011;31365;48.858;8.530;2023-05-07T08:59:46;2.45;;;1.63;;
45650;SDS011;31365;48.858;8.530;2023-05-07T09:02:14;1.60;;;1.50;;
45650;SDS011;31365;48.858;8.530;2023-05-07T09:04:45;1.88;;;1.73;;
45650;SDS011;31365;48.858;8.530;2023-05-07T09:07:13;3.50;;;1.95;;
45650;SDS011;31365;48.858;8.530;2023-05-07T09:09:43;3.05;;;1.80;;
45650;SDS011;31365;48.858;8.530;2023-05-07T09:12:13;4.03;;;1.70;;
45650;SDS011;31365;48.858;8.530;2023-05-07T09:14:43;3.05;;;1.83;;
45650;SDS011;31365;48.858;8.530;2023-05-07T09:17:13;4.40;;;2.03;;
45650;SDS011;31365;48.858;8.530;2023-05-07T09:19:43;2.75;;;1.73;;
45650;SDS011;31365;48.858;8.530;2023-05-07T09:22:14;2.10;;;1.90;;
45650;SDS011;31365;48.858;8.530;2023-05-07T09:25:08;2.95;;;1.60;;
45650;SDS011;31365;48.858;8.530;2023-05-07T09:27:38;1.40;;;1.30;;
45650;SDS011;31365;48.858;8.530;2023-05-07T09:30:09;2.65;;;1.50;;
45650;SDS011;31365;48.858;8.530;2023-05-07T09:32:39;1.88;;;1.65;;
45650;SDS011;31365;48.858;8.530;2023-05-07T09:35:17;2.45;;;1.88;;
45650;SDS011;31365;48.858;8.530;2023-05-07T09:37:52;1.73;;;1.60;;
45650;SDS011;31365;48.858;8.530;2023-05-07T09:40:22;3.88;;;1.88;;
45650;SDS011;31365;48.858;8.530;2023-05-07T09:43:07;2.13;;;1.92;;
45650;SDS011;31365;48.858;8.530;2023-05-07T09:45:42;2.88;;;1.80;;
45650;SDS011;31365;48.858;8.530;2023-05-07T09:48:12;2.00;;;1.52;;
45650;SDS011;31365;48.858;8.530;2023-05-07T09:50:48;1.80;;;1.70;;
45650;SDS011;31365;48.858;8.530;2023-05-07T09:53:24;3.13;;;1.90;;
45650;SDS011;31365;48.858;8.530;2023-05-07T09:55:54;1.65;;;1.55;;
45650;SDS011;31365;48.858;8.530;2023-05-07T09:58:25;3.13;;;2.15;;
45650;SDS011;31365;48.858;8.530;2023-05-07T10:00:56;5.38;;;2.40;;
45650;SDS011;31365;48.858;8.530;2023-05-07T10:03:26;4.18;;;1.70;;
45650;SDS011;31365;48.858;8.530;2023-05-07T10:06:03;4.90;;;2.22;;
45650;SDS011;31365;48.858;8.530;2023-05-07T10:08:32;2.25;;;2.00;;
45650;SDS011;31365;48.858;8.530;2023-05-07T10:11:05;3.28;;;2.20;;
45650;SDS011;31365;48.858;8.530;2023-05-07T10:13:34;5.70;;;2.13;;
45650;SDS011;31365;48.858;8.530;2023-05-07T10:16:08;2.25;;;1.90;;
45650;SDS011;31365;48.858;8.530;2023-05-07T10:18:43;3.55;;;2.22;;
45650;SDS011;31365;48.858;8.530;2023-05-07T10:21:19;4.38;;;2.08;;
45650;SDS011;31365;48.858;8.530;2023-05-07T10:23:53;4.90;;;2.42;;
45650;SDS011;31365;48.858;8.530;2023-05-07T10:26:29;4.57;;;2.00;;
45650;SDS011;31365;48.858;8.530;2023-05-07T10:29:02;2.05;;;1.77;;
45650;SDS011;31365;48.858;8.530;2023-05-07T10:34:43;2.45;;;1.80;;
45650;SDS011;31365;48.858;8.530;2023-05-07T10:37:16;2.55;;;2.20;;
45650;SDS011;31365;48.858;8.530;2023-05-07T10:39:46;2.58;;;2.00;;
45650;SDS011;31365;48.858;8.530;2023-05-07T10:42:15;3.35;;;1.75;;
45650;SDS011;31365;48.858;8.530;2023-05-07T10:44:49;2.53;;;1.80;;
45650;SDS011;31365;48.858;8.530;2023-05-07T10:47:24;4.38;;;2.15;;
45650;SDS011;31365;48.858;8.530;2023-05-07T10:56:23;2.25;;;1.83;;
45650;SDS011;31365;48.858;8.530;2023-05-07T11:02:22;2.55;;;1.90;;
45650;SDS011;31365;48.858;8.530;2023-05-07T11:06:11;5.57;;;1.95;;
45650;SDS011;31365;48.858;8.530;2023-05-07T11:08:53;2.28;;;1.83;;
45650;SDS011;31365;48.858;8.530;2023-05-07T11:11:45;2.72;;;2.17;;
45650;SDS011;31365;48.858;8.530;2023-05-07T11:14:44;3.13;;;1.85;;
45650;SDS011;31365;48.858;8.530;2023-05-07T11:17:25;4.68;;;1.73;;
45650;SDS011;31365;48.858;8.530;2023-05-07T11:20:05;1.95;;;1.83;;
45650;SDS011;31365;48.858;8.530;2023-05-07T11:22:47;2.53;;;2.00;;
45650;SDS011;31365;48.858;8.530;2023-05-07T11:25:22;2.55;;;2.10;;
45650;SDS011;31365;48.858;8.530;2023-05-07T11:28:03;2.10;;;1.88;;
45650;SDS011;31365;48.858;8.530;2023-05-07T11:30:33;2.40;;;2.20;;
45650;SDS011;31365;48.858;8.530;2023-05-07T11:33:06;2.28;;;1.88;;
45650;SDS011;31365;48.858;8.530;2023-05-07T11:35:34;3.28;;;2.30;;
45650;SDS011;31365;48.858;8.530;2023-05-07T11:38:06;2.35;;;1.95;;
45650;SDS011;31365;48.858;8.530;2023-05-07T11:40:35;3.53;;;1.80;;
45650;SDS011;31365;48.858;8.530;2023-05-07T11:43:17;3.08;;;2.10;;
45650;SDS011;31365;48.858;8.530;2023-05-07T11:45:46;2.38;;;2.08;;
45650;SDS011;31365;48.858;8.530;2023-05-07T11:48:17;2.53;;;2.33;;
45650;SDS011;31365;48.858;8.530;2023-05-07T11:50:50;3.45;;;2.00;;
45650;SDS011;31365;48.858;8.530;2023-05-07T11:53:19;2.28;;;1.90;;
45650;SDS011;31365;48.858;8.530;2023-05-07T11:55:51;2.45;;;2.25;;
45650;SDS011;31365;48.858;8.530;2023-05-07T11:58:21;2.50;;;2.08;;
45650;SDS011;31365;48.858;8.530;2023-05-07T12:00:51;3.85;;;2.60;;
45650;SDS011;31365;48.858;8.530;2023-05-07T12:03:22;3.58;;;2.50;;
45650;SDS011;31365;48.858;8.530;2023-05-07T12:05:50;3.40;;;2.40;;
45650;SDS011;31365;48.858;8.530;2023-05-07T12:08:19;2.53;;;2.33;;
45650;SDS011;31365;48.858;8.530;2023-05-07T12:10:49;4.22;;;2.28;;
45650;SDS011;31365;48.858;8.530;2023-05-07T12:13:19;4.80;;;2.55;;
45650;SDS011;31365;48.858;8.530;2023-05-07T12:15:50;2.80;;;2.33;;
45650;SDS011;31365;48.858;8.530;2023-05-07T12:18:19;4.25;;;1.88;;
45650;SDS011;31365;48.858;8.530;2023-05-07T12:20:50;2.40;;;1.98;;
45650;SDS011;31365;48.858;8.530;2023-05-07T12:23:18;3.13;;;2.40;;
45650;SDS011;31365;48.858;8.530;2023-05-07T12:25:47;5.93;;;2.78;;
45650;SDS011;31365;48.858;8.530;2023-05-07T12:28:17;3.30;;;2.45;;
45650;SDS011;31365;48.858;8.530;2023-05-07T12:30:46;5.28;;;2.75;;
45650;SDS011;31365;48.858;8.530;2023-05-07T12:33:16;2.60;;;2.40;;
45650;SDS011;31365;48.858;8.530;2023-05-07T12:35:49;6.55;;;2.92;;
45650;SDS011;31365;48.858;8.530;2023-05-07T12:38:17;3.78;;;2.60;;
45650;SDS011;31365;48.858;8.530;2023-05-07T12:40:46;2.63;;;2.42;;
45650;SDS011;31365;48.858;8.530;2023-05-07T12:43:18;4.25;;;2.80;;
45650;SDS011;31365;48.858;8.530;2023-05-07T12:45:48;3.70;;;2.35;;
45650;SDS011;31365;48.858;8.530;2023-05-07T12:48:19;4.32;;;2.40;;
45650;SDS011;31365;48.858;8.530;2023-05-07T12:50:50;3.33;;;2.65;;
45650;SDS011;31365;48.858;8.530;2023-05-07T12:53:20;3.38;;;2.17;;
45650;SDS011;31365;48.858;8.530;2023-05-07T12:55:50;4.55;;;2.85;;
45650;SDS011;31365;48.858;8.530;2023-05-07T12:58:21;3.53;;;2.38;;
45650;SDS011;31365;48.858;8.530;2023-05-07T13:00:54;8.80;;;2.75;;
45650;SDS011;31365;48.858;8.530;2023-05-07T13:03:27;9.13;;;2.55;;
45650;SDS011;31365;48.858;8.530;2023-05-07T13:05:59;8.48;;;3.85;;
45650;SDS011;31365;48.858;8.530;2023-05-07T13:08:30;4.78;;;2.20;;
45650;SDS011;31365;48.858;8.530;2023-05-07T13:11:01;4.93;;;2.00;;
45650;SDS011;31365;48.858;8.530;2023-05-07T13:13:31;7.50;;;2.83;;
45650;SDS011;31365;48.858;8.530;2023-05-07T13:16:01;8.48;;;2.97;;
45650;SDS011;31365;48.858;8.530;2023-05-07T13:18:30;9.05;;;2.03;;
45650;SDS011;31365;48.858;8.530;2023-05-07T13:21:01;6.32;;;2.40;;
45650;SDS011;31365;48.858;8.530;2023-05-07T13:23:29;5.90;;;2.28;;
45650;SDS011;31365;48.858;8.530;2023-05-07T13:25:58;5.93;;;2.25;;
45650;SDS011;31365;48.858;8.530;2023-05-07T13:28:31;2.45;;;1.75;;
45650;SDS011;31365;48.858;8.530;2023-05-07T13:31:00;3.47;;;1.90;;
45650;SDS011;31365;48.858;8.530;2023-05-07T13:33:29;3.22;;;2.20;;
45650;SDS011;31365;48.858;8.530;2023-05-07T13:35:57;4.80;;;2.20;;
45650;SDS011;31365;48.858;8.530;2023-05-07T13:38:28;3.92;;;2.00;;
45650;SDS011;31365;48.858;8.530;2023-05-07T13:40:56;3.15;;;1.60;;
45650;SDS011;31365;48.858;8.530;2023-05-07T13:43:25;3.22;;;1.55;;
45650;SDS011;31365;48.858;8.530;2023-05-07T13:45:53;3.83;;;1.95;;
45650;SDS011;31365;48.858;8.530;2023-05-07T13:48:21;3.22;;;1.67;;
45650;SDS011;31365;48.858;8.530;2023-05-07T13:50:49;3.25;;;1.50;;
45650;SDS011;31365;48.858;8.530;2023-05-07T13:53:18;3.00;;;1.15;;
45650;SDS011;31365;48.858;8.530;2023-05-07T13:55:47;3.78;;;1.98;;
45650;SDS011;31365;48.858;8.530;2023-05-07T13:58:16;1.98;;;1.23;;
45650;SDS011;31365;48.858;8.530;2023-05-07T14:00:44;1.65;;;1.30;;
45650;SDS011;31365;48.858;8.530;2023-05-07T14:03:12;1.63;;;1.52;;
45650;SDS011;31365;48.858;8.530;2023-05-07T14:05:43;2.15;;;1.70;;
45650;SDS011;31365;48.858;8.530;2023-05-07T14:08:15;2.05;;;1.77;;
45650;SDS011;31365;48.858;8.530;2023-05-07T14:10:45;2.22;;;1.70;;
45650;SDS011;31365;48.858;8.530;2023-05-07T14:13:15;2.17;;;1.35;;
45650;SDS011;31365;48.858;8.530;2023-05-07T14:15:43;1.80;;;1.35;;
45650;SDS011;31365;48.858;8.530;2023-05-07T14:18:13;2.03;;;1.30;;
45650;SDS011;31365;48.858;8.530;2023-05-07T14:20:42;2.35;;;1.73;;
45650;SDS011;31365;48.858;8.530;2023-05-07T14:23:13;2.25;;;1.38;;
45650;SDS011;31365;48.858;8.530;2023-05-07T14:25:41;1.42;;;1.33;;
45650;SDS011;31365;48.858;8.530;2023-05-07T14:28:11;3.28;;;1.52;;
45650;SDS011;31365;48.858;8.530;2023-05-07T14:30:40;2.90;;;1.55;;
45650;SDS011;31365;48.858;8.530;2023-05-07T14:33:08;3.92;;;1.50;;
45650;SDS011;31365;48.858;8.530;2023-05-07T14:35:36;3.55;;;1.50;;
45650;SDS011;31365;48.858;8.530;2023-05-07T14:38:05;1.40;;;1.30;;
45650;SDS011;31365;48.858;8.530;2023-05-07T14:40:33;1.40;;;1.30;;
45650;SDS011;31365;48.858;8.530;2023-05-07T14:43:02;2.00;;;1.30;;
45650;SDS011;31365;48.858;8.530;2023-05-07T14:45:31;2.42;;;1.40;;
45650;SDS011;31365;48.858;8.530;2023-05-07T14:48:00;1.50;;;1.30;;
45650;SDS011;31365;48.858;8.530;2023-05-07T14:50:28;2.33;;;1.27;;
45650;SDS011;31365;48.858;8.530;2023-05-07T14:52:57;3.13;;;1.73;;
45650;SDS011;31365;48.858;8.530;2023-05-07T14:55:25;1.33;;;1.20;;
45650;SDS011;31365;48.858;8.530;2023-05-07T14:57:55;3.10;;;1.35;;
45650;SDS011;31365;48.858;8.530;2023-05-07T15:00:24;3.42;;;1.40;;
45650;SDS011;31365;48.858;8.530;2023-05-07T15:02:53;2.15;;;1.60;;
45650;SDS011;31365;48.858;8.530;2023-05-07T15:05:28;3.17;;;1.50;;
45650;SDS011;31365;48.858;8.530;2023-05-07T15:07:57;1.33;;;1.13;;
45650;SDS011;31365;48.858;8.530;2023-05-07T15:10:26;2.20;;;1.40;;
45650;SDS011;31365;48.858;8.530;2023-05-07T15:12:54;1.48;;;1.38;;
45650;SDS011;31365;48.858;8.530;2023-05-07T15:15:23;1.85;;;1.10;;
45650;SDS011;31365;48.858;8.530;2023-05-07T15:17:53;1.95;;;1.20;;
45650;SDS011;31365;48.858;8.530;2023-05-07T15:20:22;6.53;;;2.72;;
45650;SDS011;31365;48.858;8.530;2023-05-07T15:22:51;3.08;;;2.60;;
45650;SDS011;31365;48.858;8.530;2023-05-07T15:25:19;1.65;;;1.48;;